Time;durP1;ratioP1;P1;durP2;ratioP2;P2;SDS_P1;SDS_P2;PMS_P1;PMS_P2;Temp;Humidity;BMP_temperature;BMP_pressure;BME280_temperature;BME280_humidity;BME280_pressure;Samples;Min_cycle;Max_cycle;Signal;HPM_P1;HPM_P2
2023/07/21 00:01:01;;;;;;;2.72;1.27;;;16.40;99.90;;;;;;5001114;28;20111;-34
2023/07/21 00:03:26;;;;;;;3.08;1.27;;;16.30;99.90;;;;;;5002099;28;20054;-34
2023/07/21 00:05:52;;;;;;;3.30;1.38;;;16.30;99.90;;;;;;4998265;28;20046;-34
2023/07/21 00:08:18;;;;;;;4.65;1.35;;;16.30;99.90;;;;;;5007005;28;20058;-35
2023/07/21 00:10:44;;;;;;;3.10;1.35;;;16.20;99.90;;;;;;5006817;28;20507;-35
2023/07/21 00:13:10;;;;;;;3.55;1.50;;;16.20;99.90;;;;;;4989229;28;20058;-35
2023/07/21 00:15:35;;;;;;;3.40;1.35;;;16.20;99.90;;;;;;4994753;28;20076;-35
2023/07/21 00:18:03;;;;;;;2.88;1.40;;;16.20;99.90;;;;;;4995893;28;20072;-34
2023/07/21 00:20:29;;;;;;;2.42;1.13;;;16.30;99.90;;;;;;4990347;28;20049;-34
2023/07/21 00:22:55;;;;;;;4.75;1.33;;;16.20;99.90;;;;;;5011133;28;20518;-34
2023/07/21 00:25:20;;;;;;;4.00;1.17;;;16.20;99.90;;;;;;4988675;28;20069;-35
2023/07/21 00:27:46;;;;;;;2.95;1.40;;;16.20;99.90;;;;;;4983596;28;20066;-34
2023/07/21 00:30:13;;;;;;;2.22;1.42;;;16.20;99.90;;;;;;5001203;28;20478;-34
2023/07/21 00:32:40;;;;;;;5.15;1.75;;;16.20;99.90;;;;;;5000927;28;20073;-34
2023/07/21 00:35:08;;;;;;;3.63;1.48;;;16.20;99.90;;;;;;4989988;28;20407;-34
2023/07/21 00:37:38;;;;;;;3.50;1.48;;;16.20;99.90;;;;;;4998315;28;20042;-34
2023/07/21 00:40:05;;;;;;;2.35;1.40;;;16.20;99.90;;;;;;4997049;28;20070;-35
2023/07/21 00:42:34;;;;;;;3.50;1.27;;;16.20;99.90;;;;;;4995429;28;20499;-35
2023/07/21 00:45:01;;;;;;;3.30;1.70;;;16.20;99.90;;;;;;5003499;28;20506;-34
2023/07/21 00:47:28;;;;;;;5.97;1.95;;;16.20;99.90;;;;;;5006885;28;20128;-34
2023/07/21 00:49:54;;;;;;;3.60;1.70;;;16.20;99.90;;;;;;4998991;28;20053;-34
2023/07/21 00:52:21;;;;;;;3.75;1.95;;;16.20;99.90;;;;;;4996404;28;20043;-34
2023/07/21 00:54:47;;;;;;;4.00;1.65;;;16.20;99.90;;;;;;4987738;28;20088;-34
2023/07/21 00:57:16;;;;;;;3.75;1.73;;;16.20;99.90;;;;;;4984696;28;20078;-34
2023/07/21 00:59:42;;;;;;;4.38;1.70;;;16.20;99.90;;;;;;4983786;28;20082;-35
2023/07/21 01:02:08;;;;;;;2.47;1.42;;;16.20;99.90;;;;;;4992581;28;20050;-34
2023/07/21 01:04:34;;;;;;;4.18;1.52;;;16.20;99.90;;;;;;4985169;28;20051;-35
2023/07/21 01:07:05;;;;;;;3.80;1.23;;;16.20;99.90;;;;;;4994048;28;20133;-35
2023/07/21 01:09:35;;;;;;;2.67;1.30;;;16.20;99.90;;;;;;4992378;28;20081;-34
2023/07/21 01:12:05;;;;;;;2.28;1.05;;;16.20;99.90;;;;;;4990405;28;20050;-34
2023/07/21 01:14:31;;;;;;;3.60;1.30;;;16.20;99.90;;;;;;4983840;28;20064;-34
2023/07/21 01:16:59;;;;;;;2.83;1.13;;;16.20;99.90;;;;;;4990424;28;20043;-34
2023/07/21 01:19:26;;;;;;;2.92;1.38;;;16.10;99.90;;;;;;4997539;28;20045;-34
2023/07/21 01:21:58;;;;;;;3.88;1.52;;;16.10;99.90;;;;;;4990140;28;20126;-35
2023/07/21 01:24:43;;;;;;;3.42;1.33;;;16.10;99.90;;;;;;4989405;28;20097;-34
2023/07/21 01:27:11;;;;;;;2.75;1.40;;;16.10;99.90;;;;;;4999453;28;20046;-34
2023/07/21 01:29:40;;;;;;;3.58;1.30;;;16.10;99.90;;;;;;4997126;28;20061;-35
2023/07/21 01:32:09;;;;;;;3.50;1.48;;;16.20;99.90;;;;;;5001836;28;20104;-34
2023/07/21 01:34:36;;;;;;;2.78;1.25;;;16.10;99.90;;;;;;5001716;28;20054;-34
2023/07/21 01:37:06;;;;;;;3.60;1.50;;;16.10;99.90;;;;;;4986534;28;20054;-35
2023/07/21 01:39:34;;;;;;;2.83;1.50;;;16.10;99.90;;;;;;5006129;28;20471;-34
2023/07/21 01:42:00;;;;;;;2.80;1.45;;;16.10;99.90;;;;;;5002241;28;20699;-35
2023/07/21 01:44:26;;;;;;;3.72;1.42;;;16.10;99.90;;;;;;5001747;28;20077;-35
2023/07/21 01:46:53;;;;;;;3.67;1.33;;;16.10;99.90;;;;;;4997151;28;20088;-34
2023/07/21 01:49:19;;;;;;;3.50;1.50;;;16.10;99.90;;;;;;4993460;28;20416;-34
2023/07/21 01:51:47;;;;;;;3.15;1.55;;;16.00;99.90;;;;;;5008133;28;20057;-33
2023/07/21 01:54:34;;;;;;;3.70;1.50;;;15.90;99.90;;;;;;5003634;28;20061;-34
2023/07/21 01:57:05;;;;;;;3.30;1.60;;;15.80;99.90;;;;;;4986266;28;20103;-34
2023/07/21 01:59:30;;;;;;;4.35;1.65;;;15.70;99.90;;;;;;4992772;28;20050;-35
2023/07/21 02:01:57;;;;;;;3.88;1.70;;;15.70;99.90;;;;;;4998374;28;20065;-34
2023/07/21 02:04:23;;;;;;;3.65;1.50;;;15.60;99.90;;;;;;5006895;28;20058;-34
2023/07/21 02:06:50;;;;;;;4.13;2.13;;;15.60;99.90;;;;;;5005219;28;20049;-34
2023/07/21 02:09:16;;;;;;;3.15;1.60;;;15.60;99.90;;;;;;4985228;28;20076;-34
2023/07/21 02:11:43;;;;;;;3.60;2.00;;;15.50;99.90;;;;;;5001842;28;20054;-34
2023/07/21 02:14:09;;;;;;;2.78;1.85;;;15.50;99.90;;;;;;5003244;28;20050;-34
2023/07/21 02:16:37;;;;;;;1.95;1.42;;;15.50;99.90;;;;;;4986901;28;20049;-35
2023/07/21 02:19:05;;;;;;;3.42;1.85;;;15.50;99.90;;;;;;4989849;28;20061;-34
2023/07/21 02:21:32;;;;;;;2.28;1.58;;;15.40;99.90;;;;;;5009559;28;20056;-34
2023/07/21 02:23:58;;;;;;;3.03;1.60;;;15.40;99.90;;;;;;4995521;28;20523;-34
2023/07/21 02:26:23;;;;;;;4.85;2.30;;;15.40;99.90;;;;;;5001121;28;20136;-34
2023/07/21 02:28:49;;;;;;;4.22;1.88;;;15.30;99.90;;;;;;4994840;28;20086;-34
2023/07/21 02:31:15;;;;;;;3.33;1.77;;;15.30;99.90;;;;;;4996633;28;20120;-34
2023/07/21 02:33:40;;;;;;;3.40;2.10;;;15.30;99.90;;;;;;5007119;28;20045;-34
2023/07/21 02:36:06;;;;;;;3.20;1.70;;;15.30;99.90;;;;;;5009833;28;20468;-34
2023/07/21 02:38:32;;;;;;;5.68;2.28;;;15.20;99.90;;;;;;5003604;28;20625;-34
2023/07/21 02:41:03;;;;;;;4.35;1.85;;;15.20;99.90;;;;;;4999536;28;20196;-34
2023/07/21 02:43:29;;;;;;;4.50;1.90;;;15.20;99.90;;;;;;4995746;28;20057;-34
2023/07/21 02:45:56;;;;;;;4.18;2.28;;;15.20;99.90;;;;;;4990744;28;20051;-34
2023/07/21 02:48:22;;;;;;;3.60;2.10;;;15.20;99.90;;;;;;5000669;28;20050;-34
2023/07/21 02:50:49;;;;;;;4.03;1.90;;;15.20;99.90;;;;;;5001147;28;20397;-33
2023/07/21 02:53:16;;;;;;;3.60;1.98;;;15.20;99.90;;;;;;5002717;28;20057;-34
2023/07/21 02:55:43;;;;;;;3.25;1.80;;;15.10;99.90;;;;;;4999177;28;20654;-32
2023/07/21 02:58:11;;;;;;;3.38;1.90;;;15.10;99.90;;;;;;4994506;28;20054;-33
2023/07/21 03:00:37;;;;;;;3.75;2.38;;;15.10;99.90;;;;;;4993817;28;20050;-34
2023/07/21 03:03:03;;;;;;;4.30;2.38;;;15.00;99.90;;;;;;4990852;28;20132;-34
2023/07/21 03:05:29;;;;;;;3.40;2.15;;;15.00;99.90;;;;;;5001899;28;20549;-33
2023/07/21 03:07:58;;;;;;;2.67;1.77;;;15.00;99.90;;;;;;4993219;28;20050;-34
2023/07/21 03:10:24;;;;;;;4.03;2.20;;;14.90;99.90;;;;;;5003128;28;20475;-34
2023/07/21 03:12:50;;;;;;;4.15;2.25;;;14.90;99.90;;;;;;5003516;28;20049;-34
2023/07/21 03:15:16;;;;;;;5.75;2.50;;;14.80;99.90;;;;;;4997693;28;20491;-34
2023/07/21 03:17:41;;;;;;;3.85;2.20;;;14.80;99.90;;;;;;5005062;28;20080;-34
2023/07/21 03:20:12;;;;;;;5.47;2.33;;;14.80;99.90;;;;;;4996799;28;20061;-34
2023/07/21 03:22:38;;;;;;;4.82;2.40;;;14.80;99.90;;;;;;5000671;28;20053;-34
2023/07/21 03:25:06;;;;;;;3.92;2.30;;;14.80;99.90;;;;;;5004328;28;20052;-34
2023/07/21 03:27:33;;;;;;;4.90;2.65;;;14.80;99.90;;;;;;5001289;28;20053;-34
2023/07/21 03:29:59;;;;;;;3.75;2.20;;;14.80;99.90;;;;;;5002882;28;20042;-34
2023/07/21 03:32:26;;;;;;;3.50;1.90;;;14.80;99.90;;;;;;4991383;28;20058;-35
2023/07/21 03:34:54;;;;;;;6.07;2.63;;;14.80;99.90;;;;;;5000608;28;20049;-34
2023/07/21 03:37:25;;;;;;;4.80;2.65;;;14.80;99.90;;;;;;4992737;28;20050;-34
2023/07/21 03:39:52;;;;;;;3.07;2.10;;;14.80;99.90;;;;;;4997507;28;20103;-34
2023/07/21 03:42:18;;;;;;;4.20;2.00;;;14.80;99.90;;;;;;4995530;28;20846;-34
2023/07/21 03:44:47;;;;;;;4.20;2.55;;;14.80;99.90;;;;;;4998557;28;20424;-34
2023/07/21 03:47:14;;;;;;;3.63;2.42;;;14.80;99.90;;;;;;4995187;28;20076;-34
2023/07/21 03:49:40;;;;;;;3.70;2.60;;;14.70;99.90;;;;;;4992920;28;20496;-34
2023/07/21 03:52:05;;;;;;;4.38;2.42;;;14.80;99.90;;;;;;4994680;28;20137;-34
2023/07/21 03:54:31;;;;;;;4.72;2.83;;;14.80;99.90;;;;;;4997749;28;20042;-34
2023/07/21 03:56:57;;;;;;;4.72;2.50;;;14.80;99.90;;;;;;4990479;28;20377;-34
2023/07/21 03:59:22;;;;;;;5.07;2.83;;;14.80;99.90;;;;;;4999335;28;20511;-34
2023/07/21 04:01:48;;;;;;;3.70;2.17;;;14.80;99.90;;;;;;5000552;28;20045;-34
2023/07/21 04:04:15;;;;;;;6.35;2.38;;;14.80;99.90;;;;;;4998487;28;20121;-35
2023/07/21 04:06:42;;;;;;;8.70;2.63;;;14.90;99.90;;;;;;4999936;28;20054;-35
2023/07/21 04:09:09;;;;;;;4.20;2.60;;;14.90;99.90;;;;;;4997832;28;20053;-35
2023/07/21 04:11:34;;;;;;;4.68;2.40;;;14.90;99.90;;;;;;4992525;28;20776;-35
2023/07/21 04:14:00;;;;;;;4.10;2.58;;;14.90;99.90;;;;;;4993926;28;20046;-35
2023/07/21 04:16:26;;;;;;;4.15;2.40;;;14.90;99.90;;;;;;5002695;28;20054;-35
2023/07/21 04:18:52;;;;;;;4.30;2.08;;;14.90;99.90;;;;;;5002971;28;20397;-35
2023/07/21 04:21:17;;;;;;;5.97;2.63;;;14.90;99.90;;;;;;4997000;28;20092;-35
2023/07/21 04:23:43;;;;;;;3.83;2.60;;;14.90;99.90;;;;;;4996750;28;20058;-35
2023/07/21 04:26:11;;;;;;;3.83;2.30;;;14.90;99.90;;;;;;4987509;28;21673;-35
2023/07/21 04:28:37;;;;;;;4.20;2.70;;;14.90;99.90;;;;;;4991639;28;20065;-35
2023/07/21 04:31:02;;;;;;;5.70;2.70;;;14.90;99.90;;;;;;4985454;28;20058;-44
2023/07/21 04:33:28;;;;;;;5.07;2.25;;;14.90;99.90;;;;;;4988372;28;20049;-35
2023/07/21 04:35:54;;;;;;;3.90;2.55;;;15.00;99.90;;;;;;5006430;28;20053;-35
2023/07/21 04:38:19;;;;;;;4.93;2.58;;;15.00;99.90;;;;;;4980917;28;20042;-35
2023/07/21 04:40:45;;;;;;;8.50;2.60;;;15.00;99.90;;;;;;4992215;28;20076;-35
2023/07/21 04:43:12;;;;;;;4.07;2.72;;;15.10;99.90;;;;;;4989953;28;20141;-35
2023/07/21 04:45:41;;;;;;;6.57;2.20;;;15.10;99.90;;;;;;5011512;28;20053;-35
2023/07/21 04:48:07;;;;;;;9.57;3.13;;;15.20;99.90;;;;;;4987781;28;20724;-35
2023/07/21 04:50:33;;;;;;;8.52;2.58;;;15.20;99.90;;;;;;4992654;28;20132;-35
2023/07/21 04:53:01;;;;;;;4.95;2.15;;;15.20;99.90;;;;;;4990857;28;20082;-35
2023/07/21 04:55:27;;;;;;;5.45;2.28;;;15.30;99.90;;;;;;4992140;28;20050;-36
2023/07/21 04:57:53;;;;;;;6.85;2.70;;;15.40;99.90;;;;;;4995706;28;20089;-35
2023/07/21 05:00:19;;;;;;;8.27;2.83;;;15.40;99.90;;;;;;4985820;28;20492;-35
2023/07/21 05:02:45;;;;;;;4.65;2.38;;;15.40;99.90;;;;;;5003470;28;20058;-35
2023/07/21 05:05:10;;;;;;;4.68;2.40;;;15.40;99.90;;;;;;4993705;28;21132;-35
2023/07/21 05:07:36;;;;;;;5.22;2.50;;;15.40;99.90;;;;;;4991699;28;20051;-37
2023/07/21 05:10:03;;;;;;;4.88;2.63;;;15.50;99.90;;;;;;4997236;28;20076;-35
2023/07/21 05:12:29;;;;;;;5.10;2.20;;;15.50;99.90;;;;;;4992805;28;20074;-35
2023/07/21 05:14:54;;;;;;;7.53;2.53;;;15.50;99.90;;;;;;4989292;28;20065;-32
2023/07/21 05:17:20;;;;;;;6.45;2.83;;;15.60;99.90;;;;;;4990514;28;20046;-33
2023/07/21 05:19:46;;;;;;;4.65;2.10;;;15.60;99.90;;;;;;4997173;28;20097;-32
2023/07/21 05:22:12;;;;;;;6.35;2.10;;;15.60;99.90;;;;;;4988488;28;20070;-32
2023/07/21 05:24:38;;;;;;;3.53;2.10;;;15.60;99.90;;;;;;4982071;28;20069;-35
2023/07/21 05:27:04;;;;;;;4.10;2.13;;;15.60;99.90;;;;;;4986261;28;20054;-35
2023/07/21 05:29:31;;;;;;;5.35;2.10;;;15.60;99.90;;;;;;4990658;28;20042;-35
2023/07/21 05:31:57;;;;;;;7.13;2.35;;;15.70;99.90;;;;;;4991611;28;20053;-35
2023/07/21 05:34:22;;;;;;;6.07;1.98;;;15.70;99.90;;;;;;4990333;28;20050;-35
2023/07/21 05:36:48;;;;;;;3.70;1.92;;;15.70;99.90;;;;;;5000421;28;20053;-35
2023/07/21 05:39:14;;;;;;;3.75;2.17;;;15.70;99.90;;;;;;4995009;28;20050;-35
2023/07/21 05:41:39;;;;;;;4.55;2.30;;;15.70;99.90;;;;;;5004198;28;20512;-35
2023/07/21 05:44:05;;;;;;;4.05;2.35;;;15.80;99.90;;;;;;4991356;28;20050;-35
2023/07/21 05:46:31;;;;;;;6.20;1.80;;;15.80;99.90;;;;;;5017332;28;20058;-35
2023/07/21 05:48:57;;;;;;;4.78;2.15;;;15.90;99.90;;;;;;4988874;28;20072;-34
2023/07/21 05:51:23;;;;;;;4.85;1.83;;;15.90;99.90;;;;;;4997217;28;20100;-34
2023/07/21 05:53:49;;;;;;;3.72;2.00;;;16.00;99.90;;;;;;4980113;28;20051;-35
2023/07/21 05:56:15;;;;;;;2.55;1.60;;;16.00;99.90;;;;;;4995054;28;20061;-34
2023/07/21 05:58:41;;;;;;;5.53;1.60;;;16.10;99.90;;;;;;4994756;28;20050;-34
2023/07/21 06:01:10;;;;;;;2.10;1.05;;;16.10;99.90;;;;;;4989499;28;20073;-34
2023/07/21 06:03:37;;;;;;;4.47;1.63;;;16.20;99.90;;;;;;4984183;28;20054;-34
2023/07/21 06:06:03;;;;;;;4.03;1.60;;;16.20;99.90;;;;;;4980921;28;20050;-34
2023/07/21 06:08:29;;;;;;;5.10;1.85;;;16.20;99.90;;;;;;4990720;28;20057;-34
2023/07/21 06:10:57;;;;;;;4.72;1.92;;;16.30;99.90;;;;;;5000991;28;20045;-34
2023/07/21 06:13:29;;;;;;;7.25;2.30;;;16.30;99.90;;;;;;4998449;28;20073;-34
2023/07/21 06:15:55;;;;;;;4.60;2.10;;;16.30;99.90;;;;;;5003944;28;20492;-34
2023/07/21 06:18:21;;;;;;;4.00;2.30;;;16.30;99.90;;;;;;4990440;28;20050;-34
2023/07/21 06:20:47;;;;;;;4.10;2.00;;;16.30;99.90;;;;;;4989134;28;20042;-34
2023/07/21 06:23:13;;;;;;;3.85;2.00;;;16.40;99.90;;;;;;4999331;28;20243;-34
2023/07/21 06:25:39;;;;;;;7.38;2.08;;;16.50;99.90;;;;;;5002961;28;20058;-34
2023/07/21 06:28:05;;;;;;;4.93;2.00;;;16.60;99.90;;;;;;4987825;28;20508;-34
2023/07/21 06:30:31;;;;;;;3.03;1.80;;;16.60;99.90;;;;;;5013744;28;20054;-34
2023/07/21 06:32:57;;;;;;;5.32;1.73;;;16.60;99.90;;;;;;4999436;28;20550;-34
2023/07/21 06:35:22;;;;;;;3.40;1.67;;;16.60;99.90;;;;;;4995967;28;20069;-34
2023/07/21 06:37:48;;;;;;;3.60;1.73;;;16.70;99.90;;;;;;4991708;28;20054;-34
2023/07/21 06:40:14;;;;;;;4.35;1.80;;;16.80;99.90;;;;;;4984619;28;20632;-34
2023/07/21 06:42:43;;;;;;;3.28;1.90;;;17.00;99.90;;;;;;5006133;28;20137;-34
2023/07/21 06:45:10;;;;;;;5.40;2.00;;;17.00;99.90;;;;;;4980694;28;20046;-34
2023/07/21 06:47:36;;;;;;;3.80;1.42;;;17.10;99.90;;;;;;4996309;28;20050;-34
2023/07/21 06:50:02;;;;;;;4.30;1.35;;;17.20;99.90;;;;;;4988552;28;20101;-34
2023/07/21 06:52:28;;;;;;;3.72;1.80;;;17.30;99.90;;;;;;5006287;28;20042;-34
2023/07/21 06:54:53;;;;;;;2.45;1.25;;;17.40;99.90;;;;;;4996627;28;20065;-34
2023/07/21 06:57:19;;;;;;;2.75;1.60;;;17.50;99.90;;;;;;4986066;28;20426;-34
2023/07/21 06:59:45;;;;;;;2.72;1.27;;;17.60;99.90;;;;;;4991631;28;20469;-34
2023/07/21 07:02:12;;;;;;;7.15;1.50;;;17.70;99.90;;;;;;4990106;28;20038;-34
2023/07/21 07:04:38;;;;;;;2.78;1.73;;;17.80;99.90;;;;;;5008605;28;20462;-34
2023/07/21 07:07:04;;;;;;;2.80;1.10;;;17.90;99.90;;;;;;5008941;28;20081;-34
2023/07/21 07:09:30;;;;;;;1.95;0.60;;;18.00;99.90;;;;;;4989302;28;20054;-34
2023/07/21 07:11:56;;;;;;;2.38;1.10;;;18.20;99.90;;;;;;5001558;28;20088;-34
2023/07/21 07:14:22;;;;;;;1.30;0.77;;;18.30;99.90;;;;;;4996546;28;20050;-34
2023/07/21 07:16:47;;;;;;;2.00;1.00;;;18.40;99.90;;;;;;4988083;28;20062;-34
2023/07/21 07:19:13;;;;;;;2.03;1.00;;;18.50;99.90;;;;;;4998721;28;20079;-34
2023/07/21 07:21:39;;;;;;;2.55;1.00;;;18.60;99.90;;;;;;4999950;28;20518;-34
2023/07/21 07:24:05;;;;;;;1.95;1.00;;;18.70;99.90;;;;;;4998475;28;20533;-34
2023/07/21 07:26:31;;;;;;;5.00;1.20;;;18.70;99.90;;;;;;5004889;28;20050;-34
2023/07/21 07:28:57;;;;;;;2.50;1.17;;;18.70;99.90;;;;;;4995538;28;20061;-34
2023/07/21 07:31:23;;;;;;;1.95;1.15;;;18.70;99.90;;;;;;4988344;28;20716;-34
2023/07/21 07:33:49;;;;;;;3.50;1.17;;;18.70;99.90;;;;;;4988825;28;20058;-35
2023/07/21 07:36:14;;;;;;;3.13;1.70;;;18.70;99.90;;;;;;4981594;28;20049;-34
2023/07/21 07:38:40;;;;;;;3.10;1.48;;;18.60;99.90;;;;;;4993219;28;20054;-34
2023/07/21 07:41:09;;;;;;;3.53;1.88;;;18.60;99.90;;;;;;4982230;28;20062;-34
2023/07/21 07:43:35;;;;;;;3.53;1.60;;;18.70;99.90;;;;;;4994832;28;20057;-34
2023/07/21 07:46:02;;;;;;;3.00;1.40;;;18.80;99.90;;;;;;5000636;28;20057;-34
2023/07/21 07:48:27;;;;;;;3.67;1.60;;;18.90;99.90;;;;;;4999382;28;20045;-34
2023/07/21 07:50:55;;;;;;;5.30;1.70;;;19.00;99.90;;;;;;4999933;28;20097;-34
2023/07/21 07:53:21;;;;;;;2.60;1.48;;;19.20;99.90;;;;;;4985193;28;20054;-34
2023/07/21 07:55:47;;;;;;;2.00;1.30;;;19.30;99.90;;;;;;4999236;28;20050;-35
2023/07/21 07:58:13;;;;;;;3.63;1.42;;;19.40;99.90;;;;;;4976446;28;20112;-32
2023/07/21 08:00:43;;;;;;;3.58;1.27;;;19.60;99.90;;;;;;4996050;28;20798;-33
2023/07/21 08:03:09;;;;;;;5.18;1.55;;;19.70;99.90;;;;;;4986180;28;20057;-33
2023/07/21 08:05:37;;;;;;;3.33;1.55;;;19.80;99.90;;;;;;4987061;28;20084;-32
2023/07/21 08:08:03;;;;;;;1.92;1.25;;;20.00;99.90;;;;;;4990858;28;20066;-33
2023/07/21 08:10:30;;;;;;;1.85;1.20;;;20.10;99.90;;;;;;4999544;28;20069;-32
2023/07/21 08:12:57;;;;;;;2.47;1.10;;;20.30;99.90;;;;;;4981734;28;20045;-32
2023/07/21 08:15:23;;;;;;;3.47;1.20;;;20.40;99.90;;;;;;4996617;28;20100;-32
2023/07/21 08:17:53;;;;;;;2.00;1.02;;;20.50;99.90;;;;;;4995224;28;20054;-32
2023/07/21 08:20:19;;;;;;;2.92;1.17;;;20.50;99.90;;;;;;4994248;28;20133;-35
2023/07/21 08:22:50;;;;;;;3.88;1.33;;;20.50;99.90;;;;;;4998323;28;20054;-34
2023/07/21 08:25:17;;;;;;;2.47;1.00;;;20.70;99.90;;;;;;4988517;28;20056;-34
2023/07/21 08:27:43;;;;;;;3.35;1.33;;;20.80;99.90;;;;;;4994143;28;20058;-34
2023/07/21 08:30:09;;;;;;;1.55;0.80;;;21.00;99.90;;;;;;4995241;28;20049;-34
2023/07/21 08:32:36;;;;;;;1.73;0.43;;;21.00;99.90;;;;;;4992431;28;20169;-32
2023/07/21 08:35:03;;;;;;;1.05;0.65;;;21.00;99.90;;;;;;4997310;28;20084;-32
2023/07/21 08:37:30;;;;;;;1.70;0.50;;;20.90;99.90;;;;;;5001073;28;20559;-32
2023/07/21 08:39:55;;;;;;;1.25;0.57;;;20.90;99.90;;;;;;5005119;28;20100;-33
2023/07/21 08:42:26;;;;;;;0.52;0.30;;;20.90;99.90;;;;;;4984908;28;20129;-33
2023/07/21 08:44:54;;;;;;;1.17;0.40;;;20.90;99.90;;;;;;4999788;28;20057;-33
2023/07/21 08:47:20;;;;;;;0.30;0.22;;;20.90;99.90;;;;;;5002355;28;20061;-33
2023/07/21 08:49:47;;;;;;;0.70;0.50;;;21.00;99.90;;;;;;4994552;28;20054;-33
2023/07/21 08:52:13;;;;;;;1.20;0.50;;;20.90;99.90;;;;;;4989694;28;20116;-33
2023/07/21 08:54:39;;;;;;;1.73;0.40;;;21.00;99.90;;;;;;4994713;28;20142;-33
2023/07/21 08:57:04;;;;;;;0.55;0.30;;;20.90;99.90;;;;;;4992000;28;20097;-33
2023/07/21 08:59:30;;;;;;;0.75;0.38;;;20.90;99.90;;;;;;4990442;28;20767;-33
2023/07/21 09:01:56;;;;;;;0.63;0.40;;;20.90;99.90;;;;;;5002764;28;20050;-33
2023/07/21 09:04:23;;;;;;;0.57;0.30;;;20.90;99.90;;;;;;4989970;28;20096;-32
2023/07/21 09:06:53;;;;;;;10.63;4.43;;;21.00;99.90;;;;;;4990360;28;20649;-33
2023/07/21 09:09:20;;;;;;;5.00;1.10;;;20.90;99.90;;;;;;4984943;28;20050;-33
2023/07/21 09:11:47;;;;;;;2.30;0.80;;;20.90;99.90;;;;;;4998744;28;20045;-33
2023/07/21 09:14:14;;;;;;;2.97;1.35;;;20.90;99.90;;;;;;5001047;28;20058;-33
2023/07/21 09:16:40;;;;;;;1.40;0.60;;;20.90;99.90;;;;;;4998252;28;20046;-33
2023/07/21 09:19:06;;;;;;;2.05;0.70;;;21.00;99.90;;;;;;5001927;28;20451;-33
2023/07/21 09:21:35;;;;;;;1.67;0.70;;;21.20;99.90;;;;;;5002890;28;20058;-32
2023/07/21 09:24:05;;;;;;;2.05;0.90;;;21.30;99.90;;;;;;4992867;28;20097;-33
2023/07/21 09:26:31;;;;;;;1.42;0.82;;;21.50;99.90;;;;;;5005953;28;20050;-33
2023/07/21 09:28:58;;;;;;;1.83;0.65;;;21.50;99.90;;;;;;4999324;28;20419;-33
2023/07/21 09:31:32;;;;;;;3.80;0.90;;;21.40;99.90;;;;;;5002165;28;20064;-33
2023/07/21 09:34:06;;;;;;;1.83;0.77;;;21.50;99.90;;;;;;5005591;28;20150;-33
2023/07/21 09:36:32;;;;;;;1.77;1.05;;;21.60;99.90;;;;;;4994744;28;20058;-33
2023/07/21 09:39:02;;;;;;;1.20;0.70;;;21.90;99.90;;;;;;4992224;28;20057;-33
2023/07/21 09:41:34;;;;;;;1.45;0.60;;;22.10;99.90;;;;;;4998721;28;20081;-33
2023/07/21 09:44:00;;;;;;;2.10;0.50;;;22.20;99.90;;;;;;4981621;28;20567;-33
2023/07/21 09:46:26;;;;;;;1.63;0.50;;;22.30;99.90;;;;;;4993435;28;20054;-33
2023/07/21 09:48:53;;;;;;;0.70;0.40;;;22.30;99.90;;;;;;5004317;28;20053;-33
2023/07/21 09:51:20;;;;;;;1.33;0.60;;;22.20;99.90;;;;;;4992976;28;20147;-33
2023/07/21 09:53:48;;;;;;;1.08;0.40;;;22.20;99.90;;;;;;4987505;28;20068;-33
2023/07/21 09:56:17;;;;;;;1.65;0.60;;;22.30;99.90;;;;;;4992545;28;20064;-33
2023/07/21 09:58:47;;;;;;;1.02;0.50;;;22.40;99.90;;;;;;4998952;28;20085;-33
2023/07/21 10:01:14;;;;;;;1.60;0.50;;;22.40;99.90;;;;;;4997950;28;20050;-33
2023/07/21 10:03:41;;;;;;;1.35;0.50;;;22.40;99.90;;;;;;4995415;28;20064;-33
2023/07/21 10:06:08;;;;;;;0.55;0.30;;;22.30;99.90;;;;;;5001931;28;20045;-33
2023/07/21 10:08:36;;;;;;;0.70;0.40;;;22.20;99.90;;;;;;5008433;28;20100;-33
2023/07/21 10:11:04;;;;;;;0.60;0.40;;;22.20;99.90;;;;;;5003766;28;20053;-33
2023/07/21 10:13:32;;;;;;;0.50;0.40;;;22.20;99.90;;;;;;4997287;28;20061;-33
2023/07/21 10:16:21;;;;;;;1.92;0.60;;;22.30;99.90;;;;;;5012284;28;20052;-33
2023/07/21 10:19:11;;;;;;;1.92;0.50;;;22.30;99.90;;;;;;4987522;28;20297;-33
2023/07/21 10:21:52;;;;;;;2.58;0.60;;;22.50;99.90;;;;;;4959707;28;20054;-33
2023/07/21 10:24:28;;;;;;;1.30;0.60;;;22.60;99.90;;;;;;4977918;28;20058;-33
2023/07/21 10:27:05;;;;;;;1.73;0.52;;;22.60;99.90;;;;;;4997969;28;20065;-33
2023/07/21 10:29:31;;;;;;;0.65;0.40;;;22.40;99.90;;;;;;4984066;28;20058;-33
2023/07/21 10:32:05;;;;;;;0.80;0.40;;;22.30;99.90;;;;;;5000840;28;20145;-33
2023/07/21 10:34:34;;;;;;;2.10;0.60;;;22.30;99.90;;;;;;4993903;28;20065;-33
2023/07/21 10:37:04;;;;;;;1.00;0.40;;;22.40;99.90;;;;;;5008455;28;20042;-33
2023/07/21 10:39:31;;;;;;;2.30;0.30;;;22.50;99.90;;;;;;4999960;28;20064;-33
2023/07/21 10:41:59;;;;;;;1.52;0.60;;;22.60;99.90;;;;;;4987102;28;20489;-34
2023/07/21 10:44:44;;;;;;;1.33;0.60;;;22.70;99.90;;;;;;4989597;28;20058;-33
2023/07/21 10:47:12;;;;;;;0.60;0.40;;;22.70;99.90;;;;;;5002581;28;20050;-33
2023/07/21 10:49:38;;;;;;;1.33;0.40;;;22.80;99.90;;;;;;4992646;28;20054;-33
2023/07/21 10:52:04;;;;;;;0.95;0.50;;;22.80;99.90;;;;;;5000454;28;20240;-33
2023/07/21 10:54:30;;;;;;;0.70;0.47;;;22.90;99.90;;;;;;4989014;28;20810;-33
2023/07/21 10:56:58;;;;;;;1.25;0.40;;;22.90;99.90;;;;;;4990612;28;20500;-33
2023/07/21 10:59:24;;;;;;;1.48;0.40;;;22.90;99.90;;;;;;4998085;28;20060;-33
2023/07/21 11:01:53;;;;;;;1.02;0.30;;;22.80;99.90;;;;;;4990965;28;20042;-34
2023/07/21 11:04:20;;;;;;;0.47;0.30;;;22.80;99.90;;;;;;4993472;28;20132;-34
2023/07/21 11:06:53;;;;;;;1.20;0.40;;;22.80;99.90;;;;;;4991494;28;20066;-33
2023/07/21 11:09:21;;;;;;;0.45;0.30;;;22.70;99.90;;;;;;4979530;28;20053;-34
2023/07/21 11:11:55;;;;;;;0.90;0.40;;;22.70;99.90;;;;;;4995028;28;20112;-34
2023/07/21 11:14:23;;;;;;;0.50;0.40;;;22.70;99.90;;;;;;4994080;28;20562;-33
2023/07/21 11:16:49;;;;;;;0.63;0.40;;;22.80;99.90;;;;;;4984623;28;20510;-34
2023/07/21 11:19:16;;;;;;;1.08;0.40;;;23.00;99.90;;;;;;4998711;28;20054;-33
2023/07/21 11:21:41;;;;;;;0.90;0.60;;;23.30;99.90;;;;;;4995970;28;20705;-34
2023/07/21 11:24:08;;;;;;;0.90;0.60;;;23.50;99.90;;;;;;5001824;28;20095;-34
2023/07/21 11:26:36;;;;;;;1.00;0.35;;;23.70;99.90;;;;;;4999339;28;20054;-34
2023/07/21 11:29:08;;;;;;;0.90;0.40;;;23.70;99.90;;;;;;4989038;28;20050;-33
2023/07/21 11:31:36;;;;;;;0.50;0.30;;;23.80;99.90;;;;;;4991441;28;20068;-34
2023/07/21 11:34:02;;;;;;;1.00;0.40;;;23.90;99.90;;;;;;4988129;28;20053;-34
2023/07/21 11:36:33;;;;;;;1.67;0.30;;;24.00;99.90;;;;;;4993534;28;20100;-34
2023/07/21 11:39:03;;;;;;;1.45;0.40;;;24.00;99.90;;;;;;4992123;28;20534;-34
2023/07/21 11:41:36;;;;;;;0.82;0.47;;;23.90;99.90;;;;;;5002210;28;20177;-34
2023/07/21 11:44:05;;;;;;;1.33;0.47;;;23.90;99.90;;;;;;4988563;28;20092;-33
2023/07/21 11:47:04;;;;;;;0.45;0.40;;;24.00;99.90;;;;;;4982834;28;20061;-33
2023/07/21 11:49:31;;;;;;;1.20;0.35;;;24.00;99.90;;;;;;4999570;28;20065;-34
2023/07/21 11:51:59;;;;;;;0.88;0.50;;;24.10;99.90;;;;;;4986472;28;20045;-33
2023/07/21 11:54:30;;;;;;;0.88;0.50;;;24.20;99.90;;;;;;4998361;28;20111;-34
2023/07/21 11:56:57;;;;;;;1.27;0.50;;;24.20;99.90;;;;;;4980725;28;20192;-33
2023/07/21 11:59:24;;;;;;;1.10;0.50;;;24.20;99.90;;;;;;4998512;28;20054;-33
2023/07/21 12:01:50;;;;;;;1.00;0.70;;;24.00;99.90;;;;;;4993922;28;20422;-33
2023/07/21 12:04:19;;;;;;;1.50;0.50;;;24.10;99.90;;;;;;4978519;28;20058;-33
2023/07/21 12:06:44;;;;;;;1.48;0.60;;;24.10;99.90;;;;;;4973824;28;20065;-34
2023/07/21 12:09:12;;;;;;;1.20;0.50;;;24.00;99.90;;;;;;4992639;28;20058;-34
2023/07/21 12:11:38;;;;;;;1.00;0.60;;;24.00;99.90;;;;;;4982404;28;20046;-34
2023/07/21 12:14:04;;;;;;;1.20;0.80;;;23.90;99.90;;;;;;5003183;28;20050;-33
2023/07/21 12:16:31;;;;;;;0.93;0.70;;;23.80;99.90;;;;;;5000346;28;20152;-34
2023/07/21 12:18:57;;;;;;;1.30;0.60;;;23.70;99.90;;;;;;4994651;28;20415;-33
2023/07/21 12:21:26;;;;;;;2.55;0.60;;;23.70;99.90;;;;;;4983539;28;20057;-34
2023/07/21 12:23:52;;;;;;;4.50;0.70;;;23.50;99.90;;;;;;4992388;28;20062;-33
2023/07/21 12:26:21;;;;;;;3.50;0.80;;;23.40;99.90;;;;;;5004658;28;20128;-33
2023/07/21 12:28:53;;;;;;;2.63;1.20;;;23.10;99.90;;;;;;5014894;28;20487;-33
2023/07/21 12:31:19;;;;;;;1.88;1.00;;;22.90;99.90;;;;;;4989006;28;20050;-33
2023/07/21 12:33:47;;;;;;;1.83;0.70;;;22.60;99.90;;;;;;5003636;28;20045;-34
2023/07/21 12:36:14;;;;;;;1.88;0.60;;;22.30;99.90;;;;;;4998602;28;20058;-33
2023/07/21 12:38:41;;;;;;;1.77;0.68;;;22.20;99.90;;;;;;4998506;28;20052;-34
2023/07/21 12:41:07;;;;;;;1.25;0.63;;;22.10;99.90;;;;;;4997119;28;20057;-33
2023/07/21 12:43:32;;;;;;;1.40;0.60;;;21.80;99.90;;;;;;4994511;28;20053;-34
2023/07/21 12:46:00;;;;;;;1.65;0.57;;;21.70;99.90;;;;;;4995708;28;20408;-34
2023/07/21 12:48:26;;;;;;;1.23;0.50;;;21.40;99.90;;;;;;4992548;28;20046;-33